Terminal Aerodrome Forecast
Issued by NWS

Home | Current Version | Previous Version | Text Only | Print | Product List | Glossary On
Versions: 1 2 3 4 5 6 7 8 9 10 11 12 13 14 15 16 17 18 19 20 21 22 23 24 25 26 27 28 29 30 31
000
FTUS44 KLIX 271720
TAFHDC
TAF
KHDC 271720Z 2718/2818 12005KT P6SM SCT035 SCT050
     FM272100 35007KT P6SM SCT045 BKN110
     FM272300 VRB03KT P6SM SCT050 BKN110
     FM281100 35006KT P6SM SCT050 BKN110 PROB30 2812/2818 4SM -SHRA
      BKN035 BKN040 BKN045=

USA.gov is the U.S. government's official web portal to all federal, state and local government web resources and services.